Time;durP1;ratioP1;P1;durP2;ratioP2;P2;SDS_P1;SDS_P2;PMS_P1;PMS_P2;Temp;Humidity;BMP_temperature;BMP_pressure;BME280_temperature;BME280_humidity;BME280_pressure;Samples;Min_cycle;Max_cycle;Signal;HPM_P1;HPM_P2
2022/04/20 00:02:07;;;;;;;9.30;8.20;;;7.00;99.90;;;;;;5052510;28;20469;-69
2022/04/20 00:04:35;;;;;;;10.90;7.90;;;7.00;99.90;;;;;;5052571;28;20944;-70
2022/04/20 00:07:02;;;;;;;10.13;7.43;;;7.10;99.90;;;;;;5052377;28;20525;-67
2022/04/20 00:09:29;;;;;;;12.77;8.53;;;7.20;99.90;;;;;;5052148;28;20930;-70
2022/04/20 00:11:56;;;;;;;10.80;8.03;;;7.10;99.90;;;;;;5052948;28;20546;-70
2022/04/20 00:14:23;;;;;;;10.30;7.77;;;7.00;99.90;;;;;;5052705;28;20457;-70
2022/04/20 00:16:52;;;;;;;12.33;8.93;;;7.10;99.90;;;;;;5052379;28;20462;-67
2022/04/20 00:19:19;;;;;;;10.90;7.90;;;7.10;99.90;;;;;;5051194;28;20454;-70
2022/04/20 00:21:46;;;;;;;9.57;7.90;;;7.10;99.90;;;;;;5052125;28;20511;-71
2022/04/20 00:24:13;;;;;;;9.50;8.07;;;7.10;99.90;;;;;;5052013;28;20800;-68
2022/04/20 00:26:40;;;;;;;11.03;8.30;;;7.20;99.90;;;;;;5051949;28;20449;-70
2022/04/20 00:29:07;;;;;;;12.20;8.47;;;7.10;99.90;;;;;;5050495;28;20856;-69
2022/04/20 00:31:34;;;;;;;11.60;8.50;;;7.00;99.90;;;;;;5051921;28;20458;-69
2022/04/20 00:34:02;;;;;;;12.80;9.23;;;7.00;99.90;;;;;;5051940;28;20504;-71
2022/04/20 00:36:30;;;;;;;12.70;9.53;;;7.00;99.90;;;;;;5051904;28;20500;-70
2022/04/20 00:38:57;;;;;;;10.63;9.53;;;7.00;99.90;;;;;;5051661;28;20786;-71
2022/04/20 00:41:24;;;;;;;11.10;8.67;;;7.00;99.90;;;;;;5051875;28;20442;-70
2022/04/20 00:43:51;;;;;;;11.67;9.30;;;6.90;99.90;;;;;;5051874;28;20477;-69
2022/04/20 00:46:20;;;;;;;11.70;9.30;;;7.00;99.90;;;;;;5051923;28;20449;-70
2022/04/20 00:48:48;;;;;;;11.97;9.70;;;6.90;99.90;;;;;;5051323;28;21008;-70
2022/04/20 00:51:17;;;;;;;13.23;9.40;;;6.90;99.90;;;;;;5051213;28;20454;-68
2022/04/20 00:53:44;;;;;;;10.77;9.63;;;6.90;99.90;;;;;;5051278;28;20482;-69
2022/04/20 00:56:11;;;;;;;11.90;9.87;;;7.00;99.90;;;;;;5051680;28;20908;-70
2022/04/20 00:58:41;;;;;;;11.33;8.37;;;7.10;99.90;;;;;;5051558;28;20927;-69
2022/04/20 01:01:09;;;;;;;12.07;8.90;;;7.10;99.90;;;;;;5051399;28;20460;-69
2022/04/20 01:03:36;;;;;;;9.13;7.87;;;7.00;99.90;;;;;;5051002;28;20791;-68
2022/04/20 01:06:03;;;;;;;9.90;8.77;;;6.70;99.90;;;;;;5051139;28;20533;-70
2022/04/20 01:08:31;;;;;;;12.40;8.30;;;6.80;99.90;;;;;;5051054;28;20517;-68
2022/04/20 01:10:59;;;;;;;10.20;7.43;;;6.80;99.90;;;;;;5050967;28;20462;-70
2022/04/20 01:13:26;;;;;;;8.87;7.70;;;6.80;99.90;;;;;;5051203;28;20963;-69
2022/04/20 01:15:53;;;;;;;10.83;8.07;;;6.80;99.90;;;;;;5051336;28;20465;-71
2022/04/20 01:18:20;;;;;;;9.00;7.80;;;6.90;99.90;;;;;;5051226;28;20503;-68
2022/04/20 01:20:51;;;;;;;9.93;8.40;;;6.80;99.90;;;;;;5050804;28;20450;-69
2022/04/20 01:23:18;;;;;;;10.10;8.50;;;6.80;99.90;;;;;;5050920;28;20482;-69
2022/04/20 01:25:45;;;;;;;10.83;8.73;;;6.80;99.90;;;;;;5051108;28;20508;-68
2022/04/20 01:28:12;;;;;;;12.20;8.50;;;6.70;99.90;;;;;;5050940;28;20513;-68
2022/04/20 01:30:39;;;;;;;10.33;8.37;;;6.50;99.90;;;;;;5050423;28;20450;-69
2022/04/20 01:33:06;;;;;;;11.33;8.50;;;6.40;99.90;;;;;;5050467;28;20474;-68
2022/04/20 01:35:34;;;;;;;11.03;8.20;;;6.40;99.90;;;;;;5050770;28;20453;-67
2022/04/20 01:38:02;;;;;;;16.23;9.50;;;6.50;99.90;;;;;;5050688;28;20446;-69
2022/04/20 01:40:29;;;;;;;11.50;9.50;;;6.60;99.90;;;;;;5050736;28;20446;-70
2022/04/20 01:42:56;;;;;;;13.07;9.57;;;6.40;99.90;;;;;;5050562;28;20481;-69
2022/04/20 01:45:23;;;;;;;12.70;9.80;;;6.50;99.90;;;;;;5050363;28;20919;-68
2022/04/20 01:47:51;;;;;;;10.43;8.50;;;6.40;99.90;;;;;;5050358;28;20490;-71
2022/04/20 01:50:18;;;;;;;11.07;8.40;;;6.50;99.90;;;;;;5050252;28;20800;-69
2022/04/20 01:52:49;;;;;;;11.40;8.90;;;6.50;99.90;;;;;;5050344;28;20977;-70
2022/04/20 01:55:18;;;;;;;11.57;8.50;;;6.40;99.90;;;;;;5050431;28;20480;-70
2022/04/20 01:57:45;;;;;;;11.70;9.30;;;6.30;99.90;;;;;;5049947;28;20462;-68
2022/04/20 02:00:14;;;;;;;13.97;9.50;;;6.40;99.90;;;;;;5049974;28;20486;-69
2022/04/20 02:02:40;;;;;;;12.67;9.73;;;6.20;99.90;;;;;;5049809;28;20474;-69
2022/04/20 02:05:09;;;;;;;13.27;9.80;;;6.00;99.90;;;;;;5050207;28;20446;-68
2022/04/20 02:07:36;;;;;;;11.33;9.17;;;6.10;99.90;;;;;;5050191;28;20484;-68
2022/04/20 02:10:06;;;;;;;14.10;10.37;;;6.20;99.90;;;;;;5050527;28;20465;-69
2022/04/20 02:12:34;;;;;;;11.63;9.27;;;6.40;99.90;;;;;;5049680;28;20465;-70
2022/04/20 02:15:01;;;;;;;12.50;9.67;;;6.40;99.90;;;;;;5049929;28;20506;-71
2022/04/20 02:17:28;;;;;;;12.23;10.93;;;6.20;99.90;;;;;;5049948;28;20464;-70
2022/04/20 02:19:59;;;;;;;12.30;10.30;;;6.40;99.90;;;;;;5049645;28;20465;-70
2022/04/20 02:22:26;;;;;;;13.23;9.60;;;6.30;99.90;;;;;;5049882;28;20474;-69
2022/04/20 02:24:53;;;;;;;10.90;9.40;;;6.30;99.90;;;;;;5049577;28;20461;-70
2022/04/20 02:27:20;;;;;;;13.10;10.50;;;6.40;99.90;;;;;;5050012;28;20461;-70
2022/04/20 02:29:49;;;;;;;12.67;9.70;;;6.40;99.90;;;;;;5049751;28;20461;-69
2022/04/20 02:32:16;;;;;;;11.30;10.10;;;6.10;99.90;;;;;;5049710;28;20454;-70
2022/04/20 02:34:43;;;;;;;11.83;10.53;;;6.00;99.90;;;;;;5049668;28;20482;-69
2022/04/20 02:37:11;;;;;;;14.83;10.77;;;5.80;99.90;;;;;;5049842;28;20461;-70
2022/04/20 02:39:38;;;;;;;14.60;10.73;;;6.00;99.90;;;;;;5049581;28;20453;-71
2022/04/20 02:42:07;;;;;;;13.30;11.70;;;6.00;99.90;;;;;;5048707;28;20469;-68
2022/04/20 02:44:35;;;;;;;13.03;11.60;;;5.90;99.90;;;;;;5049490;28;20549;-70
2022/04/20 02:47:03;;;;;;;12.43;9.70;;;6.10;99.90;;;;;;5049452;28;20461;-70
2022/04/20 02:49:31;;;;;;;15.00;11.87;;;6.20;99.90;;;;;;5049029;28;20585;-71
2022/04/20 02:51:58;;;;;;;16.13;12.50;;;6.00;99.90;;;;;;5049215;28;20977;-69
2022/04/20 02:54:25;;;;;;;17.30;11.90;;;6.00;99.90;;;;;;5049497;28;20470;-71
2022/04/20 02:56:52;;;;;;;16.67;12.80;;;6.20;99.90;;;;;;5049964;28;20454;-68
2022/04/20 02:59:19;;;;;;;15.70;11.57;;;5.90;99.90;;;;;;5050155;28;20450;-72
2022/04/20 03:01:46;;;;;;;16.20;12.70;;;5.90;99.90;;;;;;5049474;28;20446;-69
2022/04/20 03:04:14;;;;;;;16.30;13.33;;;5.90;99.90;;;;;;5049328;28;21005;-71
2022/04/20 03:06:41;;;;;;;15.60;12.77;;;5.80;99.90;;;;;;5049223;28;20454;-70
2022/04/20 03:09:09;;;;;;;18.50;13.63;;;5.80;99.90;;;;;;5049204;28;20486;-71
2022/04/20 03:11:36;;;;;;;16.13;13.70;;;5.80;99.90;;;;;;5049262;28;20942;-72
2022/04/20 03:14:03;;;;;;;13.57;11.20;;;5.90;99.90;;;;;;5049202;28;20492;-70
2022/04/20 03:16:30;;;;;;;17.53;14.00;;;6.00;99.90;;;;;;5049104;28;20473;-72
2022/04/20 03:18:57;;;;;;;18.50;14.30;;;6.10;99.90;;;;;;5049284;28;20976;-71
2022/04/20 03:21:25;;;;;;;17.70;13.23;;;5.90;99.90;;;;;;5049105;28;20866;-71
2022/04/20 03:23:53;;;;;;;14.97;13.27;;;5.90;99.90;;;;;;5048952;28;20469;-70
2022/04/20 03:26:20;;;;;;;17.70;13.67;;;5.80;99.90;;;;;;5049199;28;20454;-70
2022/04/20 03:28:47;;;;;;;14.23;12.10;;;5.90;99.90;;;;;;5049008;28;20527;-71
2022/04/20 03:31:14;;;;;;;16.17;13.37;;;5.90;99.90;;;;;;5049101;28;20458;-71
2022/04/20 03:33:41;;;;;;;17.07;13.53;;;5.90;99.90;;;;;;5049169;28;20830;-68
2022/04/20 03:36:08;;;;;;;16.13;13.40;;;5.70;99.90;;;;;;5048944;28;20496;-68
2022/04/20 03:38:36;;;;;;;19.80;13.50;;;5.90;99.90;;;;;;5048819;28;20445;-69
2022/04/20 03:41:04;;;;;;;15.10;12.70;;;6.00;99.90;;;;;;5048703;28;20453;-70
2022/04/20 03:43:31;;;;;;;16.10;12.30;;;6.00;99.90;;;;;;5048952;28;20523;-68
2022/04/20 03:45:58;;;;;;;14.97;12.63;;;6.10;99.90;;;;;;5048883;28;20457;-71
2022/04/20 03:48:26;;;;;;;15.20;12.80;;;6.20;99.90;;;;;;5048568;28;20501;-68
2022/04/20 03:50:53;;;;;;;16.00;13.30;;;6.30;99.90;;;;;;5049065;28;20466;-70
2022/04/20 03:53:21;;;;;;;16.13;12.90;;;6.40;99.90;;;;;;5049924;28;20462;-68
2022/04/20 03:55:49;;;;;;;13.70;11.30;;;6.40;99.90;;;;;;5052704;28;20472;-70
2022/04/20 03:58:16;;;;;;;15.17;13.33;;;6.40;99.90;;;;;;5052758;28;20449;-69
2022/04/20 04:00:43;;;;;;;16.57;13.00;;;6.40;99.90;;;;;;5052435;28;20452;-71
2022/04/20 04:03:10;;;;;;;13.53;12.00;;;6.40;99.90;;;;;;5052655;28;20470;-68
2022/04/20 04:05:37;;;;;;;16.77;12.23;;;6.30;99.90;;;;;;5053418;28;20813;-68
2022/04/20 04:08:05;;;;;;;15.80;12.07;;;6.20;99.90;;;;;;5052878;28;20454;-71
2022/04/20 04:10:33;;;;;;;21.97;13.57;;;6.20;99.90;;;;;;5052483;28;20523;-69
2022/04/20 04:13:01;;;;;;;15.87;12.30;;;6.10;99.90;;;;;;5051962;28;20461;-71
2022/04/20 04:15:28;;;;;;;16.10;12.60;;;6.20;99.90;;;;;;5052099;28;20938;-71
2022/04/20 04:17:58;;;;;;;16.00;11.60;;;6.30;99.90;;;;;;5052313;28;20861;-71
2022/04/20 04:20:26;;;;;;;16.43;13.37;;;6.30;99.90;;;;;;5052209;28;20842;-71
2022/04/20 04:22:53;;;;;;;17.43;12.93;;;6.40;99.90;;;;;;5052086;28;20498;-69
2022/04/20 04:25:21;;;;;;;16.70;13.17;;;6.20;99.90;;;;;;5052114;28;20505;-70
2022/04/20 04:27:48;;;;;;;17.47;12.90;;;6.40;99.90;;;;;;5051958;28;20453;-68
2022/04/20 04:30:17;;;;;;;17.13;13.23;;;6.30;99.90;;;;;;5051849;28;20546;-71
2022/04/20 04:32:44;;;;;;;15.20;12.63;;;6.40;99.90;;;;;;5052107;28;20916;-70
2022/04/20 04:35:11;;;;;;;15.50;12.97;;;6.50;99.90;;;;;;5051949;28;20449;-70
2022/04/20 04:37:39;;;;;;;16.60;12.73;;;6.40;99.90;;;;;;5051870;28;20536;-71
2022/04/20 04:40:07;;;;;;;15.40;12.40;;;6.20;99.90;;;;;;5051736;28;20450;-66
2022/04/20 04:42:34;;;;;;;15.93;13.30;;;6.50;99.90;;;;;;5051374;28;20930;-72
2022/04/20 04:50:28;;;;;;;17.87;12.33;;;6.40;99.90;;;;;;5029780;28;20616;-68
2022/04/20 04:52:56;;;;;;;17.13;13.40;;;6.50;99.90;;;;;;5051648;28;20473;-73
2022/04/20 04:55:23;;;;;;;18.33;12.83;;;6.50;99.90;;;;;;5051619;28;20778;-74
2022/04/20 04:57:50;;;;;;;16.53;13.03;;;6.60;99.90;;;;;;5051352;28;20992;-73
2022/04/20 05:00:17;;;;;;;15.30;13.27;;;6.60;99.90;;;;;;5051058;28;20504;-71
2022/04/20 05:02:46;;;;;;;23.80;13.43;;;6.70;99.90;;;;;;5051323;28;20489;-72
2022/04/20 05:05:13;;;;;;;21.33;14.13;;;6.60;99.90;;;;;;5050749;28;20949;-74
2022/04/20 05:07:40;;;;;;;21.63;13.20;;;6.60;99.90;;;;;;5051031;28;20527;-74
2022/04/20 05:10:08;;;;;;;17.97;13.97;;;6.70;99.90;;;;;;5050948;28;20493;-74
2022/04/20 05:12:36;;;;;;;19.87;13.97;;;6.90;99.90;;;;;;5051074;28;20545;-75
2022/04/20 05:15:03;;;;;;;15.00;12.90;;;6.90;99.90;;;;;;5051286;28;20454;-73
2022/04/20 05:17:30;;;;;;;15.70;13.60;;;6.80;99.90;;;;;;5051068;28;20493;-72
2022/04/20 05:19:59;;;;;;;16.47;12.60;;;6.70;99.90;;;;;;5051168;28;20758;-72
2022/04/20 05:22:26;;;;;;;16.70;13.40;;;6.80;99.90;;;;;;5050736;28;20458;-73
2022/04/20 05:24:53;;;;;;;16.10;13.50;;;6.80;99.90;;;;;;5050753;28;20848;-76
2022/04/20 05:27:21;;;;;;;18.70;15.20;;;6.80;99.90;;;;;;5050414;28;20511;-73
2022/04/20 05:29:48;;;;;;;17.63;13.13;;;6.90;99.90;;;;;;5050598;28;20516;-75
2022/04/20 05:32:15;;;;;;;17.00;14.20;;;6.90;99.90;;;;;;5050450;28;20462;-73
2022/04/20 05:34:42;;;;;;;18.10;13.40;;;6.90;99.90;;;;;;5050174;28;20525;-75
2022/04/20 05:42:39;;;;;;;16.10;13.73;;;7.00;99.90;;;;;;5050395;28;20587;-73
2022/04/20 05:45:07;;;;;;;20.47;13.33;;;6.80;99.90;;;;;;5050428;28;20481;-71
2022/04/20 05:47:34;;;;;;;19.07;13.63;;;6.70;99.90;;;;;;5050421;28;20456;-79
2022/04/20 05:50:01;;;;;;;18.90;14.73;;;6.60;99.90;;;;;;5050002;28;20782;-74
2022/04/20 05:52:30;;;;;;;16.87;14.20;;;6.80;99.90;;;;;;5050253;28;20538;-75
2022/04/20 05:54:57;;;;;;;16.23;13.27;;;6.80;99.90;;;;;;5050290;28;20885;-75
2022/04/20 05:57:24;;;;;;;18.33;14.50;;;6.80;99.90;;;;;;5050317;28;20453;-75
2022/04/20 05:59:51;;;;;;;14.97;13.20;;;6.80;99.90;;;;;;5049850;28;20454;-72
2022/04/20 06:02:18;;;;;;;15.47;13.60;;;6.80;99.90;;;;;;5049867;28;20457;-71
2022/04/20 06:04:45;;;;;;;14.70;13.10;;;6.90;99.90;;;;;;5049854;28;20474;-73
2022/04/20 06:07:13;;;;;;;16.40;14.70;;;6.80;99.90;;;;;;5050274;28;20446;-72
2022/04/20 06:09:42;;;;;;;19.13;12.60;;;6.90;99.90;;;;;;5049990;28;20524;-73
2022/04/20 06:12:09;;;;;;;15.90;13.07;;;7.00;99.90;;;;;;5049739;28;20806;-75
2022/04/20 06:14:36;;;;;;;16.67;13.40;;;7.10;99.90;;;;;;5049560;28;20473;-74
2022/04/20 06:17:04;;;;;;;17.20;14.27;;;7.10;99.90;;;;;;5048445;28;20449;-75
2022/04/20 06:19:31;;;;;;;15.93;13.80;;;7.20;99.90;;;;;;5049796;28;21048;-73
2022/04/20 06:21:58;;;;;;;13.30;11.70;;;7.40;99.90;;;;;;5049962;28;20458;-74
2022/04/20 06:24:25;;;;;;;14.33;12.30;;;7.50;99.90;;;;;;5049511;28;20480;-74
2022/04/20 06:26:54;;;;;;;16.73;12.70;;;7.50;99.90;;;;;;5049504;28;20457;-72
2022/04/20 06:29:21;;;;;;;13.30;11.83;;;7.50;99.90;;;;;;5049745;28;20978;-69
2022/04/20 06:31:48;;;;;;;13.00;11.60;;;7.40;99.90;;;;;;5049760;28;21211;-75
2022/04/20 06:34:15;;;;;;;13.03;10.77;;;7.60;99.90;;;;;;5049417;28;20557;-72
2022/04/20 06:36:42;;;;;;;14.30;11.63;;;7.70;99.90;;;;;;5049420;28;20832;-71
2022/04/20 06:39:09;;;;;;;12.57;11.33;;;7.80;99.90;;;;;;5049150;28;20458;-71
2022/04/20 06:41:36;;;;;;;16.43;13.27;;;7.80;99.90;;;;;;5049458;28;20458;-73
2022/04/20 06:44:05;;;;;;;17.47;12.93;;;7.90;99.90;;;;;;5049044;28;20470;-75
2022/04/20 06:46:33;;;;;;;14.10;12.70;;;7.80;99.90;;;;;;5049403;28;20454;-73
2022/04/20 06:49:00;;;;;;;14.90;11.60;;;7.90;99.90;;;;;;5048515;28;20501;-76
2022/04/20 06:58:31;;;;;;;16.50;13.47;;;7.70;99.90;;;;;;5048654;28;20509;-75
2022/04/20 06:59:46;;;;;;;18.83;14.03;;;7.50;99.90;;;;;;5049308;28;20457;-74
2022/04/20 07:02:13;;;;;;;17.83;14.90;;;7.50;99.90;;;;;;5049003;28;20457;-75
2022/04/20 07:04:40;;;;;;;17.30;15.33;;;7.40;99.90;;;;;;5048880;28;20516;-74
2022/04/20 07:07:07;;;;;;;19.50;15.57;;;7.40;99.90;;;;;;5049203;28;20480;-73
2022/04/20 07:09:34;;;;;;;19.90;15.13;;;7.70;99.90;;;;;;5049197;28;20945;-71
2022/04/20 07:12:01;;;;;;;17.73;15.13;;;7.80;99.90;;;;;;5049141;28;20477;-75
2022/04/20 07:14:28;;;;;;;18.77;15.77;;;7.80;99.90;;;;;;5048970;28;20479;-71
2022/04/20 07:16:56;;;;;;;18.23;14.43;;;7.70;99.90;;;;;;5048248;28;20930;-75
2022/04/20 07:19:24;;;;;;;17.77;14.70;;;7.70;99.90;;;;;;5048528;28;20446;-71
2022/04/20 07:21:52;;;;;;;16.20;14.50;;;7.80;99.90;;;;;;5049063;28;20450;-74
2022/04/20 07:24:19;;;;;;;17.10;15.10;;;7.80;99.90;;;;;;5049072;28;20481;-77
2022/04/20 07:26:46;;;;;;;19.03;16.67;;;7.80;99.90;;;;;;5049043;28;20876;-73
2022/04/20 07:29:13;;;;;;;20.73;15.97;;;7.60;99.90;;;;;;5051561;28;20985;-74
2022/04/20 07:31:40;;;;;;;20.57;17.90;;;7.50;99.90;;;;;;5052717;28;20573;-75
2022/04/20 07:34:09;;;;;;;23.27;16.43;;;7.30;99.90;;;;;;5052834;28;20481;-74
2022/04/20 07:36:36;;;;;;;18.00;16.10;;;7.10;99.90;;;;;;5052793;28;21012;-75
2022/04/20 07:39:03;;;;;;;18.20;16.27;;;7.30;99.90;;;;;;5052888;28;20472;-72
2022/04/20 07:41:30;;;;;;;18.47;16.40;;;7.50;99.90;;;;;;5052245;28;20457;-74
2022/04/20 07:43:57;;;;;;;21.63;15.23;;;7.70;99.90;;;;;;5052231;28;20535;-76
2022/04/20 07:46:24;;;;;;;19.57;16.30;;;7.90;99.90;;;;;;5052373;28;20458;-75
2022/04/20 07:48:51;;;;;;;15.83;13.60;;;7.90;99.90;;;;;;5052175;28;20489;-74
2022/04/20 07:51:20;;;;;;;20.10;15.40;;;8.00;99.90;;;;;;5052581;28;20481;-74
2022/04/20 07:53:47;;;;;;;17.80;15.90;;;8.10;99.90;;;;;;5052368;28;21030;-72
2022/04/20 07:56:14;;;;;;;17.97;16.07;;;8.20;99.90;;;;;;5052392;28;20454;-75
2022/04/20 07:58:41;;;;;;;17.97;16.03;;;8.20;99.90;;;;;;5052017;28;20465;-78
2022/04/20 08:01:10;;;;;;;21.20;19.00;;;8.30;99.90;;;;;;5052358;28;20487;-74
2022/04/20 08:03:37;;;;;;;23.17;18.47;;;8.30;99.90;;;;;;5052468;28;20531;-73
2022/04/20 08:06:04;;;;;;;20.20;18.13;;;8.20;99.90;;;;;;5052363;28;20457;-72
2022/04/20 08:08:33;;;;;;;22.17;19.83;;;8.20;99.90;;;;;;5052599;28;20619;-72
2022/04/20 08:11:00;;;;;;;24.20;20.77;;;8.20;99.90;;;;;;5056561;28;20520;-74
2022/04/20 08:16:12;;;;;;;24.63;21.87;;;8.30;99.90;;;;;;5055638;28;20483;-71
2022/04/20 08:18:39;;;;;;;24.10;21.60;;;8.30;99.90;;;;;;5052117;28;20465;-71
2022/04/20 08:21:06;;;;;;;21.83;18.57;;;8.40;99.90;;;;;;5051829;28;20454;-74
2022/04/20 08:23:35;;;;;;;28.20;25.13;;;8.50;99.90;;;;;;5051600;28;20611;-71
2022/04/20 08:26:03;;;;;;;30.37;26.67;;;8.60;99.90;;;;;;5051821;28;20454;-70
2022/04/20 08:28:30;;;;;;;25.17;18.83;;;8.60;99.90;;;;;;5051740;28;20454;-71
2022/04/20 08:30:57;;;;;;;20.30;17.87;;;8.60;99.90;;;;;;5051853;28;20490;-70
2022/04/20 08:33:24;;;;;;;21.77;18.20;;;8.70;99.90;;;;;;5051216;28;20474;-75
2022/04/20 08:35:52;;;;;;;24.80;19.80;;;8.60;99.90;;;;;;5051901;28;20442;-73
2022/04/20 08:38:19;;;;;;;22.13;16.90;;;8.80;99.90;;;;;;5052894;28;20457;-73
2022/04/20 08:40:48;;;;;;;19.80;17.50;;;8.80;99.90;;;;;;5050656;28;20446;-73
2022/04/20 08:43:16;;;;;;;18.47;16.40;;;8.70;99.90;;;;;;5051825;28;20826;-73
2022/04/20 08:45:45;;;;;;;20.43;17.87;;;8.80;99.90;;;;;;5051386;28;20884;-75
2022/04/20 08:48:12;;;;;;;21.40;18.77;;;8.80;99.90;;;;;;5051584;28;20457;-70
2022/04/20 08:50:41;;;;;;;21.63;18.50;;;8.90;99.90;;;;;;5051166;28;20485;-74
2022/04/20 08:53:09;;;;;;;18.90;16.47;;;9.00;99.90;;;;;;5051358;28;20474;-73
2022/04/20 08:55:36;;;;;;;18.80;16.80;;;9.10;99.90;;;;;;5051387;28;20957;-71
2022/04/20 08:58:05;;;;;;;19.27;16.10;;;9.20;99.90;;;;;;5051393;28;20458;-74
2022/04/20 09:00:33;;;;;;;21.20;15.70;;;9.20;99.90;;;;;;5051307;28;20456;-75
2022/04/20 09:03:03;;;;;;;24.40;18.07;;;9.20;99.90;;;;;;5050781;28;20478;-73
2022/04/20 09:05:32;;;;;;;21.23;18.80;;;9.30;99.90;;;;;;5051127;28;20458;-72
2022/04/20 09:08:07;;;;;;;22.30;17.70;;;9.20;99.90;;;;;;5051281;28;20454;-75
2022/04/20 09:10:36;;;;;;;19.27;16.40;;;9.10;99.90;;;;;;5050857;28;20493;-76
2022/04/20 09:13:07;;;;;;;20.30;17.63;;;8.90;99.90;;;;;;5051049;28;20478;-73
2022/04/20 09:15:36;;;;;;;21.17;18.20;;;9.00;99.90;;;;;;5049071;28;20507;-70
2022/04/20 09:18:04;;;;;;;22.67;19.67;;;9.00;99.90;;;;;;5051011;28;20481;-70
2022/04/20 09:20:32;;;;;;;21.40;19.13;;;8.90;99.90;;;;;;5050743;28;20563;-72
2022/04/20 09:23:01;;;;;;;24.23;19.53;;;9.00;99.90;;;;;;5048401;28;20528;-69
2022/04/20 09:25:32;;;;;;;25.07;19.87;;;9.00;99.90;;;;;;5050897;28;20529;-71
2022/04/20 09:27:59;;;;;;;23.87;20.10;;;9.20;99.90;;;;;;5049795;28;20450;-71
2022/04/20 09:30:34;;;;;;;25.57;21.00;;;9.10;99.90;;;;;;5050964;28;20490;-69
2022/04/20 09:33:06;;;;;;;24.60;22.00;;;9.10;99.90;;;;;;5050840;28;20480;-73
2022/04/20 09:35:42;;;;;;;21.80;19.50;;;9.20;99.90;;;;;;5051002;28;20556;-70
2022/04/20 09:38:09;;;;;;;22.93;20.10;;;9.30;99.90;;;;;;5051169;28;20461;-73
2022/04/20 09:40:38;;;;;;;24.20;21.57;;;9.30;99.90;;;;;;5050942;28;20454;-72
2022/04/20 09:43:07;;;;;;;22.87;20.40;;;9.30;99.90;;;;;;5050265;28;20993;-70
2022/04/20 09:45:36;;;;;;;19.63;17.53;;;9.30;99.90;;;;;;5050878;28;20494;-71
2022/04/20 09:51:08;;;;;;;21.00;16.83;;;9.30;99.90;;;;;;5050251;28;20813;-73
2022/04/20 09:53:35;;;;;;;18.83;16.83;;;9.30;99.90;;;;;;5050159;28;20564;-71
2022/04/20 09:56:16;;;;;;;19.00;16.77;;;9.40;99.90;;;;;;5050507;28;20493;-68
2022/04/20 09:58:44;;;;;;;22.37;18.90;;;9.40;99.90;;;;;;5050477;28;20540;-75
2022/04/20 10:01:25;;;;;;;20.57;18.50;;;9.40;99.90;;;;;;5050354;28;20534;-74
2022/04/20 10:03:54;;;;;;;24.43;17.40;;;9.50;99.90;;;;;;5050332;28;20531;-75
2022/04/20 10:06:22;;;;;;;19.90;17.83;;;9.30;99.90;;;;;;5050043;28;20551;-78
2022/04/20 10:08:49;;;;;;;17.33;15.10;;;9.30;99.90;;;;;;5050287;28;20459;-76
2022/04/20 10:11:16;;;;;;;15.17;13.50;;;9.20;99.90;;;;;;5049766;28;20501;-76
2022/04/20 10:13:44;;;;;;;16.60;14.83;;;9.20;99.90;;;;;;5050140;28;20474;-79
2022/04/20 10:16:13;;;;;;;13.70;12.30;;;9.30;99.90;;;;;;5054273;28;20537;-77
2022/04/20 10:18:42;;;;;;;12.53;10.23;;;9.20;99.90;;;;;;5055940;28;20462;-77
2022/04/20 10:21:11;;;;;;;9.67;8.13;;;9.30;99.90;;;;;;5058370;28;20450;-77
2022/04/20 10:23:42;;;;;;;12.27;10.10;;;9.30;99.90;;;;;;5049874;28;20565;-73
2022/04/20 10:26:11;;;;;;;12.20;9.63;;;9.30;99.90;;;;;;5050490;28;20461;-78
2022/04/20 10:28:47;;;;;;;12.33;9.80;;;9.30;99.90;;;;;;5050202;28;20454;-73
2022/04/20 10:31:20;;;;;;;11.13;10.00;;;9.40;99.90;;;;;;5049980;28;20910;-75
2022/04/20 10:33:49;;;;;;;14.40;8.80;;;9.50;99.90;;;;;;5050005;28;20567;-72
2022/04/20 10:36:18;;;;;;;11.70;9.13;;;9.60;99.90;;;;;;5050065;28;20821;-75
2022/04/20 10:38:47;;;;;;;12.27;9.40;;;9.70;99.90;;;;;;5050015;28;20918;-75
2022/04/20 10:41:17;;;;;;;10.20;8.53;;;9.70;99.90;;;;;;5049579;28;20511;-74
2022/04/20 10:43:45;;;;;;;10.50;8.03;;;9.70;99.90;;;;;;5049850;28;20478;-75
2022/04/20 10:46:15;;;;;;;9.37;8.07;;;9.70;99.90;;;;;;5050029;28;20473;-75
2022/04/20 10:48:48;;;;;;;10.73;7.60;;;9.70;99.90;;;;;;5049756;28;20492;-76
2022/04/20 10:51:22;;;;;;;8.70;7.20;;;9.70;99.90;;;;;;5049733;28;20512;-75
2022/04/20 10:53:51;;;;;;;9.17;7.90;;;9.70;99.90;;;;;;5049706;28;20485;-77
2022/04/20 10:56:20;;;;;;;14.17;8.47;;;9.70;99.90;;;;;;5049062;28;20458;-75
2022/04/20 10:59:09;;;;;;;10.13;8.03;;;9.70;99.90;;;;;;5049846;28;20614;-75
2022/04/20 11:02:08;;;;;;;9.87;8.37;;;9.70;99.90;;;;;;5045329;28;20526;-77
2022/04/20 11:04:39;;;;;;;9.00;8.07;;;9.80;99.90;;;;;;5053169;28;20468;-74
2022/04/20 11:07:26;;;;;;;10.87;9.17;;;9.80;99.90;;;;;;5053206;28;20515;-75
2022/04/20 11:10:08;;;;;;;12.63;9.50;;;9.80;99.90;;;;;;5049806;28;20446;-75
2022/04/20 11:18:43;;;;;;;10.20;8.47;;;9.70;99.90;;;;;;4987506;28;20991;-74
2022/04/20 11:21:11;;;;;;;10.73;9.03;;;9.70;99.90;;;;;;4987248;28;20459;-73
2022/04/20 11:23:57;;;;;;;14.00;9.53;;;9.70;99.90;;;;;;5024620;28;20465;-73
2022/04/20 11:26:27;;;;;;;12.07;9.07;;;9.70;99.90;;;;;;5048342;28;20569;-73
2022/04/20 11:28:55;;;;;;;10.20;8.07;;;9.70;99.90;;;;;;5048593;28;20458;-74
2022/04/20 11:31:23;;;;;;;10.53;9.43;;;9.70;99.90;;;;;;5048840;28;20509;-74
2022/04/20 11:33:52;;;;;;;9.60;7.93;;;9.60;99.90;;;;;;5048786;28;20513;-73
2022/04/20 11:36:19;;;;;;;10.30;8.90;;;9.60;99.90;;;;;;5048816;28;20450;-73
2022/04/20 11:38:48;;;;;;;11.40;8.77;;;9.70;99.90;;;;;;5049022;28;20450;-73
2022/04/20 11:41:19;;;;;;;10.60;9.37;;;9.60;99.90;;;;;;5048839;28;20867;-73
2022/04/20 11:43:49;;;;;;;10.03;8.93;;;9.40;99.90;;;;;;5048494;28;20532;-72
2022/04/20 11:46:17;;;;;;;11.87;10.67;;;9.50;99.90;;;;;;5048714;28;20456;-72
2022/04/20 11:48:52;;;;;;;12.83;9.60;;;9.50;99.90;;;;;;5048589;28;20932;-74
2022/04/20 11:51:25;;;;;;;10.93;9.10;;;9.60;99.90;;;;;;5048714;28;20497;-74
2022/04/20 11:53:53;;;;;;;10.70;9.60;;;9.70;99.90;;;;;;5048743;28;20473;-76
2022/04/20 11:56:35;;;;;;;13.17;9.87;;;9.80;99.90;;;;;;5048622;28;20449;-74
2022/04/20 11:59:02;;;;;;;10.47;9.40;;;9.80;99.90;;;;;;5048340;28;20543;-74
2022/04/20 12:01:33;;;;;;;13.10;10.73;;;9.90;99.90;;;;;;5048449;28;20450;-75
2022/04/20 12:04:02;;;;;;;10.60;9.50;;;9.90;99.90;;;;;;5048629;28;20499;-73
2022/04/20 12:06:30;;;;;;;12.10;9.90;;;9.80;99.90;;;;;;5048702;28;20507;-72
2022/04/20 12:08:57;;;;;;;11.77;10.20;;;9.80;99.90;;;;;;5048510;28;20524;-72
2022/04/20 12:11:24;;;;;;;13.73;9.03;;;9.80;99.90;;;;;;5047959;28;20970;-73
2022/04/20 12:13:58;;;;;;;10.40;9.23;;;9.60;99.90;;;;;;5048463;28;20473;-76
2022/04/20 12:16:25;;;;;;;9.93;8.27;;;9.60;99.90;;;;;;5050711;28;20544;-74
2022/04/20 12:18:53;;;;;;;10.57;8.20;;;9.60;99.90;;;;;;5052007;28;20828;-74
2022/04/20 12:21:44;;;;;;;7.80;6.77;;;9.70;99.90;;;;;;5051693;28;20481;-72
2022/04/20 12:24:19;;;;;;;9.80;8.60;;;9.70;99.90;;;;;;5051888;28;20493;-74
2022/04/20 12:26:47;;;;;;;8.37;6.87;;;9.50;99.90;;;;;;5051995;28;20480;-74
2022/04/20 12:29:18;;;;;;;10.23;7.17;;;9.50;99.90;;;;;;5051840;28;20529;-72
2022/04/20 12:31:47;;;;;;;13.70;12.17;;;9.30;99.90;;;;;;5051440;28;20494;-74
2022/04/20 12:34:15;;;;;;;21.07;17.80;;;9.20;99.90;;;;;;5051806;28;20481;-76
2022/04/20 12:36:53;;;;;;;21.33;17.93;;;8.70;99.90;;;;;;5051805;28;20487;-74
2022/04/20 12:39:25;;;;;;;19.37;17.27;;;7.80;99.90;;;;;;5051747;28;20536;-75
2022/04/20 12:41:55;;;;;;;19.00;17.07;;;7.30;99.90;;;;;;5051804;28;20478;-74
2022/04/20 12:44:41;;;;;;;17.50;15.60;;;6.80;99.90;;;;;;5051432;28;20497;-73
2022/04/20 12:47:33;;;;;;;18.80;15.20;;;6.20;99.90;;;;;;5051550;28;20532;-74
2022/04/20 12:50:20;;;;;;;15.33;12.83;;;5.80;99.90;;;;;;5051089;28;20485;-74
2022/04/20 12:52:56;;;;;;;17.80;13.80;;;5.50;99.90;;;;;;5051362;28;20536;-74
2022/04/20 12:55:23;;;;;;;16.80;13.73;;;5.30;99.90;;;;;;5051475;28;20901;-75
2022/04/20 13:03:41;;;;;;;19.43;14.73;;;5.00;99.90;;;;;;5008615;28;20467;-74
2022/04/20 13:06:11;;;;;;;18.20;14.67;;;5.00;99.90;;;;;;5032464;28;20480;-74
2022/04/20 13:08:40;;;;;;;22.00;16.40;;;4.90;99.90;;;;;;5051212;28;20810;-74
2022/04/20 13:11:07;;;;;;;21.10;16.10;;;5.10;99.90;;;;;;5050887;28;20460;-73
2022/04/20 13:13:34;;;;;;;21.73;18.30;;;5.10;99.90;;;;;;5050918;28;20469;-75
2022/04/20 13:16:08;;;;;;;21.13;17.13;;;5.20;99.90;;;;;;5051216;28;20552;-75
2022/04/20 13:18:35;;;;;;;19.23;16.50;;;5.20;99.90;;;;;;5050985;28;20461;-76
2022/04/20 13:21:02;;;;;;;20.30;16.77;;;5.20;99.90;;;;;;5051369;28;21134;-75
2022/04/20 13:23:30;;;;;;;17.83;15.27;;;5.20;99.90;;;;;;5050670;28;20481;-76